Nearby METAR Reports

 

YSCB - Canberra (civ/Mi, Australia
Distance from station: NNE 21km
Updated: 26/09/2018 11:00
Mostly cloudy
Mostly cloudy
 Wind from WNW
Wind: WNW 20 km/h
Temperature: 12°C
Dew Point: 4°C
Humidity: 58%
Barometer: 1022 hPa
Clouds: Mostly cloudy
Visibility: 10 km
Cloud details: Few Clouds 610 m
Mostly cloudy 1067 m
2018/09/26 01:00 YSCB 260100Z 29011KT 230V300 9999 FEW020 BKN035 12/04 Q1022
YCOM - Cooma Snowy Mtns, Australia
Distance from station: S 94km
Updated: 26/09/2018 11:00
Overcast
Overcast
 Wind from S
Wind: S 7 km/h
Temperature: 7°C
Wind Chill: 6°C
Dew Point: 3°C
Humidity: 76%
Barometer: 1023 hPa
Clouds: Overcast
Visibility: 10 km
Cloud details: Overcast 579 m
2018/09/26 01:00 YCOM 260100Z AUTO 18004KT 130V250 9999 // OVC019 07/03 Q1023
 
YSNW - Nowra (aus-Navy), Australia
Distance from station: ENE 140km
Updated: 26/09/2018 11:00
Light rain, Showers, Mostly cloudy
Light rain, Showers, Mostly cloudy
 Wind from S
Wind: S 20 km/h
Temperature: 11°C
Dew Point: 9°C
Humidity: 88%
Barometer: 1023 hPa
Summary: Light rain, Showers
Clouds: Mostly cloudy
Visibility: 10 km
Cloud details: Partly cloudy 1067 m
Mostly cloudy 1250 m
2018/09/26 01:00 YSNW 260100Z 18011KT 9999 -SHRA SCT035 BKN041 11/09 Q1023 TEMPO 0100/0400 4000 SHRA BKN012
YSWG - Wagga Wagga(Cv/M, Australia
Distance from station: WNW 153km
Updated: 26/09/2018 11:00
Clear
Clear
 Wind from E
Wind: E 15 km/h
Temperature: 18°C
Dew Point: 4°C
Humidity: 40%
Barometer: 1020 hPa
Summary: Clear
Visibility: greater than 10 km
2018/09/26 01:00 YSWG 260100Z 09008KT 050V110 CAVOK 18/04 Q1020
 
YMER - Merimbula Arpt, Australia
Distance from station: SSE 177km
Updated: 26/09/2018 11:00
Overcast
Overcast
 Wind from SSW
Wind: SSW 9 km/h
Temperature: 13°C
Dew Point: 8°C
Humidity: 72%
Barometer: 1024 hPa
Clouds: Overcast
Visibility: 10 km
Cloud details: Partly cloudy 1097 m
Mostly cloudy 1554 m
Overcast 1920 m
2018/09/26 01:00 YMER 260100Z AUTO 21005KT 180V240 9999 // SCT036 BKN051 OVC063 13/08 Q1024
YMAY - Albury Airport, Australia
Distance from station: WSW 207km
Updated: 26/09/2018 11:00
Clear
Clear
 Wind from SE
Wind: SE 15 km/h
Temperature: 16°C
Dew Point: 6°C
Humidity: 52%
Barometer: 1021 hPa
Clouds: Clear
Visibility: 10 km
2018/09/26 01:00 YMAY 260100Z AUTO 14008KT 9999 // NCD 16/06 Q1021
 
YNAR - Narrandera, Australia
Distance from station: WNW 250km
Updated: 26/09/2018 11:00

 Wind from NNE
Wind: NNE 7 km/h
Temperature: 20°C
Dew Point: 2°C
Humidity: 30%
Barometer: 1020 hPa
2018/09/26 01:00 YNAR 260100Z AUTO 03004KT 350V090 //// // ////// 20/02 Q1020
YSSY - Sydney Intl Airp, Australia
Distance from station: NE 253km
Updated: 26/09/2018 11:00
Mostly cloudy
Mostly cloudy
 Wind from WNW
Wind: WNW 11 km/h
Temperature: 14°C
Dew Point: 11°C
Humidity: 82%
Barometer: 1023 hPa
Clouds: Mostly cloudy
Visibility: 10 km
Cloud details: Few Clouds 457 m
Partly cloudy 2134 m
Mostly cloudy 3353 m
2018/09/26 01:00 YSSY 260100Z 30006KT 9999 FEW015 SCT070 BKN110 14/11 Q1023
 
YSRI - Richmond (aus-Af, Australia
Distance from station: NE 257km
Updated: 26/09/2018 11:00
Overcast
Overcast
 Wind from N
Wind: N 13 km/h
Temperature: 13°C
Dew Point: 12°C
Humidity: 94%
Barometer: 1022 hPa
Clouds: Overcast
Visibility: 10 km
Cloud details: Partly cloudy 914 m
Partly cloudy 1433 m
Overcast 1768 m
2018/09/26 01:00 YSRI 260100Z AUTO 01007KT 9999 // SCT030 SCT047 OVC058 13/12 Q1022
YWGT - Wangaratta Arp, Australia
Distance from station: WSW 274km
Updated: 26/09/2018 11:00

 Wind from ESE
Wind: ESE 9 km/h
Temperature: 16°C
Dew Point: 3°C
Humidity: 42%
Barometer: 1021 hPa
Visibility: 10 km
2018/09/26 01:00 YWGT 260100Z AUTO 11005KT 080V150 9999 // ////// 16/03 Q1021
 
YGTH - Griffith Arpt, Australia
Distance from station: WNW 308km
Updated: 26/09/2018 11:00
Clear
Clear
 Wind from ESE
Wind: ESE 11 km/h
Temperature: 19°C
Dew Point: 3°C
Humidity: 35%
Barometer: 1020 hPa
Clouds: Clear
Visibility: 10 km
2018/09/26 01:00 YGTH 260100Z AUTO 12006KT 050V200 9999 // NCD 19/03 Q1020